sensor_id;sensor_type;location;lat;lon;timestamp;temperature;humidity
13211;DHT22;6670;51.53087800;7.23266500;2023-07-13T00:00:52;19.00;99.90
13211;DHT22;6670;51.53087800;7.23266500;2023-07-13T00:03:19;19.10;99.90
13211;DHT22;6670;51.53087800;7.23266500;2023-07-13T00:05:46;19.00;99.90
13211;DHT22;6670;51.53087800;7.23266500;2023-07-13T00:08:14;19.30;99.90
13211;DHT22;6670;51.53087800;7.23266500;2023-07-13T00:10:43;19.50;99.90
13211;DHT22;6670;51.53087800;7.23266500;2023-07-13T00:13:12;19.30;99.90
13211;DHT22;6670;51.53087800;7.23266500;2023-07-13T00:15:40;19.20;99.90
13211;DHT22;6670;51.53087800;7.23266500;2023-07-13T00:18:07;19.10;99.90
13211;DHT22;6670;51.53087800;7.23266500;2023-07-13T00:20:34;18.90;99.90
13211;DHT22;6670;51.53087800;7.23266500;2023-07-13T00:23:02;18.90;99.90
13211;DHT22;6670;51.53087800;7.23266500;2023-07-13T00:25:29;19.00;99.90
13211;DHT22;6670;51.53087800;7.23266500;2023-07-13T00:27:58;19.00;99.90
13211;DHT22;6670;51.53087800;7.23266500;2023-07-13T00:30:26;18.90;99.90
13211;DHT22;6670;51.53087800;7.23266500;2023-07-13T00:32:53;18.80;99.90
13211;DHT22;6670;51.53087800;7.23266500;2023-07-13T00:35:21;19.00;99.90
13211;DHT22;6670;51.53087800;7.23266500;2023-07-13T00:37:50;19.00;99.90
13211;DHT22;6670;51.53087800;7.23266500;2023-07-13T00:40:18;19.10;99.90
13211;DHT22;6670;51.53087800;7.23266500;2023-07-13T00:42:45;19.00;99.90
13211;DHT22;6670;51.53087800;7.23266500;2023-07-13T00:48:25;19.00;99.90
13211;DHT22;6670;51.53087800;7.23266500;2023-07-13T00:50:57;19.00;99.90
13211;DHT22;6670;51.53087800;7.23266500;2023-07-13T00:53:26;18.90;99.90
13211;DHT22;6670;51.53087800;7.23266500;2023-07-13T00:55:55;18.90;99.90
13211;DHT22;6670;51.53087800;7.23266500;2023-07-13T00:58:25;18.80;99.90
13211;DHT22;6670;51.53087800;7.23266500;2023-07-13T01:00:52;18.80;99.90
13211;DHT22;6670;51.53087800;7.23266500;2023-07-13T01:03:20;18.70;99.90
13211;DHT22;6670;51.53087800;7.23266500;2023-07-13T01:05:50;18.60;99.90
13211;DHT22;6670;51.53087800;7.23266500;2023-07-13T01:08:20;18.50;99.90
13211;DHT22;6670;51.53087800;7.23266500;2023-07-13T01:10:52;18.60;99.90
13211;DHT22;6670;51.53087800;7.23266500;2023-07-13T01:13:20;18.70;99.90
13211;DHT22;6670;51.53087800;7.23266500;2023-07-13T01:15:49;18.50;99.90
13211;DHT22;6670;51.53087800;7.23266500;2023-07-13T01:18:20;18.50;99.90
13211;DHT22;6670;51.53087800;7.23266500;2023-07-13T01:20:52;18.50;99.90
13211;DHT22;6670;51.53087800;7.23266500;2023-07-13T01:23:21;18.20;99.90
13211;DHT22;6670;51.53087800;7.23266500;2023-07-13T01:25:48;18.40;99.90
13211;DHT22;6670;51.53087800;7.23266500;2023-07-13T01:28:16;18.10;99.90
13211;DHT22;6670;51.53087800;7.23266500;2023-07-13T01:30:45;18.20;99.90
13211;DHT22;6670;51.53087800;7.23266500;2023-07-13T01:33:14;18.20;99.90
13211;DHT22;6670;51.53087800;7.23266500;2023-07-13T01:35:42;18.20;99.90
13211;DHT22;6670;51.53087800;7.23266500;2023-07-13T01:38:35;18.00;99.90
13211;DHT22;6670;51.53087800;7.23266500;2023-07-13T01:41:03;17.90;99.90
13211;DHT22;6670;51.53087800;7.23266500;2023-07-13T01:43:30;18.00;99.90
13211;DHT22;6670;51.53087800;7.23266500;2023-07-13T01:45:59;17.90;99.90
13211;DHT22;6670;51.53087800;7.23266500;2023-07-13T01:48:27;17.70;99.90
13211;DHT22;6670;51.53087800;7.23266500;2023-07-13T01:50:54;17.70;99.90
13211;DHT22;6670;51.53087800;7.23266500;2023-07-13T01:53:22;17.80;99.90
13211;DHT22;6670;51.53087800;7.23266500;2023-07-13T01:55:50;17.80;99.90
13211;DHT22;6670;51.53087800;7.23266500;2023-07-13T01:58:18;18.00;99.90
13211;DHT22;6670;51.53087800;7.23266500;2023-07-13T02:00:48;18.00;99.90
13211;DHT22;6670;51.53087800;7.23266500;2023-07-13T02:03:16;18.00;99.90
13211;DHT22;6670;51.53087800;7.23266500;2023-07-13T02:05:44;18.00;99.90
13211;DHT22;6670;51.53087800;7.23266500;2023-07-13T02:08:11;18.10;99.90
13211;DHT22;6670;51.53087800;7.23266500;2023-07-13T02:10:39;17.90;99.90
13211;DHT22;6670;51.53087800;7.23266500;2023-07-13T02:13:08;17.90;99.90
13211;DHT22;6670;51.53087800;7.23266500;2023-07-13T02:15:38;17.90;99.90
13211;DHT22;6670;51.53087800;7.23266500;2023-07-13T02:18:07;17.80;99.90
13211;DHT22;6670;51.53087800;7.23266500;2023-07-13T02:20:34;17.70;99.90
13211;DHT22;6670;51.53087800;7.23266500;2023-07-13T02:23:02;17.50;99.90
13211;DHT22;6670;51.53087800;7.23266500;2023-07-13T02:25:30;17.50;99.90
13211;DHT22;6670;51.53087800;7.23266500;2023-07-13T02:27:57;17.50;99.90
13211;DHT22;6670;51.53087800;7.23266500;2023-07-13T02:30:27;17.70;99.90
13211;DHT22;6670;51.53087800;7.23266500;2023-07-13T02:32:56;17.50;99.90
13211;DHT22;6670;51.53087800;7.23266500;2023-07-13T02:35:23;17.70;99.90
13211;DHT22;6670;51.53087800;7.23266500;2023-07-13T02:37:51;17.60;99.90
13211;DHT22;6670;51.53087800;7.23266500;2023-07-13T02:40:19;17.50;99.90
13211;DHT22;6670;51.53087800;7.23266500;2023-07-13T02:42:47;17.40;99.90
13211;DHT22;6670;51.53087800;7.23266500;2023-07-13T02:45:14;17.50;99.90
13211;DHT22;6670;51.53087800;7.23266500;2023-07-13T02:47:43;17.20;99.90
13211;DHT22;6670;51.53087800;7.23266500;2023-07-13T02:50:11;17.40;99.90
13211;DHT22;6670;51.53087800;7.23266500;2023-07-13T02:52:38;17.20;99.90
13211;DHT22;6670;51.53087800;7.23266500;2023-07-13T02:55:06;17.30;99.90
13211;DHT22;6670;51.53087800;7.23266500;2023-07-13T02:57:34;17.40;99.90
13211;DHT22;6670;51.53087800;7.23266500;2023-07-13T03:00:03;17.10;99.90
13211;DHT22;6670;51.53087800;7.23266500;2023-07-13T03:02:32;17.10;99.90
13211;DHT22;6670;51.53087800;7.23266500;2023-07-13T03:05:01;17.20;99.90
13211;DHT22;6670;51.53087800;7.23266500;2023-07-13T03:07:29;17.30;99.90
13211;DHT22;6670;51.53087800;7.23266500;2023-07-13T03:09:57;17.10;99.90
13211;DHT22;6670;51.53087800;7.23266500;2023-07-13T03:12:33;17.20;99.90
13211;DHT22;6670;51.53087800;7.23266500;2023-07-13T03:15:06;17.10;99.90
13211;DHT22;6670;51.53087800;7.23266500;2023-07-13T03:17:36;17.10;99.90
13211;DHT22;6670;51.53087800;7.23266500;2023-07-13T03:20:06;17.10;99.90
13211;DHT22;6670;51.53087800;7.23266500;2023-07-13T03:22:36;16.90;99.90
13211;DHT22;6670;51.53087800;7.23266500;2023-07-13T03:25:04;16.90;99.90
13211;DHT22;6670;51.53087800;7.23266500;2023-07-13T03:27:31;16.70;99.90
13211;DHT22;6670;51.53087800;7.23266500;2023-07-13T03:29:59;16.60;99.90
13211;DHT22;6670;51.53087800;7.23266500;2023-07-13T03:32:26;16.70;99.90
13211;DHT22;6670;51.53087800;7.23266500;2023-07-13T03:34:54;16.60;99.90
13211;DHT22;6670;51.53087800;7.23266500;2023-07-13T03:37:23;16.80;99.90
13211;DHT22;6670;51.53087800;7.23266500;2023-07-13T03:39:51;16.60;99.90
13211;DHT22;6670;51.53087800;7.23266500;2023-07-13T03:42:20;16.60;99.90
13211;DHT22;6670;51.53087800;7.23266500;2023-07-13T03:44:47;16.50;99.90
13211;DHT22;6670;51.53087800;7.23266500;2023-07-13T03:47:18;16.70;99.90
13211;DHT22;6670;51.53087800;7.23266500;2023-07-13T03:49:47;16.80;99.90
13211;DHT22;6670;51.53087800;7.23266500;2023-07-13T03:52:14;16.70;99.90
13211;DHT22;6670;51.53087800;7.23266500;2023-07-13T03:54:49;16.80;99.90
13211;DHT22;6670;51.53087800;7.23266500;2023-07-13T03:57:18;16.90;99.90
13211;DHT22;6670;51.53087800;7.23266500;2023-07-13T03:59:46;16.70;99.90
13211;DHT22;6670;51.53087800;7.23266500;2023-07-13T04:02:14;16.70;99.90
13211;DHT22;6670;51.53087800;7.23266500;2023-07-13T04:04:41;16.80;99.90
13211;DHT22;6670;51.53087800;7.23266500;2023-07-13T04:07:09;16.70;99.90
13211;DHT22;6670;51.53087800;7.23266500;2023-07-13T04:09:39;16.80;99.90
13211;DHT22;6670;51.53087800;7.23266500;2023-07-13T04:12:08;16.80;99.90
13211;DHT22;6670;51.53087800;7.23266500;2023-07-13T04:14:36;16.80;99.90
13211;DHT22;6670;51.53087800;7.23266500;2023-07-13T04:17:04;16.90;99.90
13211;DHT22;6670;51.53087800;7.23266500;2023-07-13T04:19:32;16.80;99.90
13211;DHT22;6670;51.53087800;7.23266500;2023-07-13T04:21:59;16.80;99.90
13211;DHT22;6670;51.53087800;7.23266500;2023-07-13T04:24:27;16.70;99.90
13211;DHT22;6670;51.53087800;7.23266500;2023-07-13T04:26:54;16.60;99.90
13211;DHT22;6670;51.53087800;7.23266500;2023-07-13T04:29:26;16.60;99.90
13211;DHT22;6670;51.53087800;7.23266500;2023-07-13T04:31:54;16.70;99.90
13211;DHT22;6670;51.53087800;7.23266500;2023-07-13T04:34:21;16.60;99.90
13211;DHT22;6670;51.53087800;7.23266500;2023-07-13T04:37:05;16.60;99.90
13211;DHT22;6670;51.53087800;7.23266500;2023-07-13T04:39:33;16.70;99.90
13211;DHT22;6670;51.53087800;7.23266500;2023-07-13T04:42:00;17.00;99.90
13211;DHT22;6670;51.53087800;7.23266500;2023-07-13T04:44:29;16.90;99.90
13211;DHT22;6670;51.53087800;7.23266500;2023-07-13T04:46:56;16.90;99.90
13211;DHT22;6670;51.53087800;7.23266500;2023-07-13T04:49:24;17.10;99.90
13211;DHT22;6670;51.53087800;7.23266500;2023-07-13T04:51:51;16.80;99.90
13211;DHT22;6670;51.53087800;7.23266500;2023-07-13T04:54:20;16.80;99.90
13211;DHT22;6670;51.53087800;7.23266500;2023-07-13T04:56:48;16.90;99.90
13211;DHT22;6670;51.53087800;7.23266500;2023-07-13T04:59:15;17.20;99.90
13211;DHT22;6670;51.53087800;7.23266500;2023-07-13T05:01:49;16.90;99.90
13211;DHT22;6670;51.53087800;7.23266500;2023-07-13T05:04:46;16.80;99.90
13211;DHT22;6670;51.53087800;7.23266500;2023-07-13T05:07:14;16.90;99.90
13211;DHT22;6670;51.53087800;7.23266500;2023-07-13T05:09:41;16.90;99.90
13211;DHT22;6670;51.53087800;7.23266500;2023-07-13T05:12:09;16.60;99.90
13211;DHT22;6670;51.53087800;7.23266500;2023-07-13T05:14:36;16.90;99.90
13211;DHT22;6670;51.53087800;7.23266500;2023-07-13T05:17:05;16.60;99.90
13211;DHT22;6670;51.53087800;7.23266500;2023-07-13T05:19:37;16.90;99.90
13211;DHT22;6670;51.53087800;7.23266500;2023-07-13T05:22:04;16.90;99.90
13211;DHT22;6670;51.53087800;7.23266500;2023-07-13T05:24:32;16.60;99.90
13211;DHT22;6670;51.53087800;7.23266500;2023-07-13T05:26:59;16.70;99.90
13211;DHT22;6670;51.53087800;7.23266500;2023-07-13T05:29:28;16.80;99.90
13211;DHT22;6670;51.53087800;7.23266500;2023-07-13T05:31:55;16.90;99.90
13211;DHT22;6670;51.53087800;7.23266500;2023-07-13T05:34:24;16.80;99.90
13211;DHT22;6670;51.53087800;7.23266500;2023-07-13T05:36:52;16.80;99.90
13211;DHT22;6670;51.53087800;7.23266500;2023-07-13T05:39:20;16.70;99.90
13211;DHT22;6670;51.53087800;7.23266500;2023-07-13T05:41:47;16.90;99.90
13211;DHT22;6670;51.53087800;7.23266500;2023-07-13T05:44:15;17.10;99.90
13211;DHT22;6670;51.53087800;7.23266500;2023-07-13T05:46:42;17.20;99.90
13211;DHT22;6670;51.53087800;7.23266500;2023-07-13T05:49:29;17.30;99.90
13211;DHT22;6670;51.53087800;7.23266500;2023-07-13T05:51:59;17.50;99.90
13211;DHT22;6670;51.53087800;7.23266500;2023-07-13T05:54:27;17.80;99.90
13211;DHT22;6670;51.53087800;7.23266500;2023-07-13T05:56:54;17.40;99.90
13211;DHT22;6670;51.53087800;7.23266500;2023-07-13T05:59:22;17.60;99.90
13211;DHT22;6670;51.53087800;7.23266500;2023-07-13T06:01:49;17.70;99.90
13211;DHT22;6670;51.53087800;7.23266500;2023-07-13T06:04:18;17.40;99.90
13211;DHT22;6670;51.53087800;7.23266500;2023-07-13T06:06:47;17.60;99.90
13211;DHT22;6670;51.53087800;7.23266500;2023-07-13T06:09:15;17.20;99.90
13211;DHT22;6670;51.53087800;7.23266500;2023-07-13T06:11:42;17.50;99.90
13211;DHT22;6670;51.53087800;7.23266500;2023-07-13T06:14:10;17.60;99.90
13211;DHT22;6670;51.53087800;7.23266500;2023-07-13T06:16:37;17.80;99.90
13211;DHT22;6670;51.53087800;7.23266500;2023-07-13T06:19:05;17.90;99.90
13211;DHT22;6670;51.53087800;7.23266500;2023-07-13T06:21:32;17.40;99.90
13211;DHT22;6670;51.53087800;7.23266500;2023-07-13T06:24:08;17.10;99.90
13211;DHT22;6670;51.53087800;7.23266500;2023-07-13T06:26:36;17.10;99.90
13211;DHT22;6670;51.53087800;7.23266500;2023-07-13T06:29:03;17.50;99.90
13211;DHT22;6670;51.53087800;7.23266500;2023-07-13T06:31:31;17.60;99.90
13211;DHT22;6670;51.53087800;7.23266500;2023-07-13T06:33:58;17.90;99.90
13211;DHT22;6670;51.53087800;7.23266500;2023-07-13T06:36:26;17.90;99.90
13211;DHT22;6670;51.53087800;7.23266500;2023-07-13T06:38:54;17.90;99.90
13211;DHT22;6670;51.53087800;7.23266500;2023-07-13T06:41:23;18.20;99.90
13211;DHT22;6670;51.53087800;7.23266500;2023-07-13T06:43:52;17.50;99.90
13211;DHT22;6670;51.53087800;7.23266500;2023-07-13T06:46:34;17.60;99.90
13211;DHT22;6670;51.53087800;7.23266500;2023-07-13T06:49:07;18.40;99.90
13211;DHT22;6670;51.53087800;7.23266500;2023-07-13T06:51:50;18.60;99.90
13211;DHT22;6670;51.53087800;7.23266500;2023-07-13T06:54:18;18.40;99.90
13211;DHT22;6670;51.53087800;7.23266500;2023-07-13T06:56:46;17.80;99.90
13211;DHT22;6670;51.53087800;7.23266500;2023-07-13T06:59:14;17.80;99.90
13211;DHT22;6670;51.53087800;7.23266500;2023-07-13T07:01:44;18.10;99.90
13211;DHT22;6670;51.53087800;7.23266500;2023-07-13T07:04:14;18.30;99.90
13211;DHT22;6670;51.53087800;7.23266500;2023-07-13T07:06:45;18.90;99.90
13211;DHT22;6670;51.53087800;7.23266500;2023-07-13T07:09:22;19.30;99.90
13211;DHT22;6670;51.53087800;7.23266500;2023-07-13T07:11:51;19.20;99.90
13211;DHT22;6670;51.53087800;7.23266500;2023-07-13T07:14:18;18.80;99.90
13211;DHT22;6670;51.53087800;7.23266500;2023-07-13T07:16:46;18.60;99.90
13211;DHT22;6670;51.53087800;7.23266500;2023-07-13T07:19:13;18.90;99.90
13211;DHT22;6670;51.53087800;7.23266500;2023-07-13T07:21:41;19.40;99.90
13211;DHT22;6670;51.53087800;7.23266500;2023-07-13T07:24:08;19.00;99.90
13211;DHT22;6670;51.53087800;7.23266500;2023-07-13T07:26:36;19.40;99.90
13211;DHT22;6670;51.53087800;7.23266500;2023-07-13T07:29:05;18.90;99.90
13211;DHT22;6670;51.53087800;7.23266500;2023-07-13T07:31:32;18.70;99.90
13211;DHT22;6670;51.53087800;7.23266500;2023-07-13T07:34:00;18.80;99.90
13211;DHT22;6670;51.53087800;7.23266500;2023-07-13T07:36:28;18.90;99.90
13211;DHT22;6670;51.53087800;7.23266500;2023-07-13T07:38:56;18.60;99.90
13211;DHT22;6670;51.53087800;7.23266500;2023-07-13T07:41:23;18.20;99.90
13211;DHT22;6670;51.53087800;7.23266500;2023-07-13T07:43:51;18.20;99.90
13211;DHT22;6670;51.53087800;7.23266500;2023-07-13T07:46:20;18.30;99.90
13211;DHT22;6670;51.53087800;7.23266500;2023-07-13T07:48:47;18.30;99.90
13211;DHT22;6670;51.53087800;7.23266500;2023-07-13T07:51:14;18.40;99.90
13211;DHT22;6670;51.53087800;7.23266500;2023-07-13T07:54:13;18.60;99.90
13211;DHT22;6670;51.53087800;7.23266500;2023-07-13T07:56:41;18.70;99.90
13211;DHT22;6670;51.53087800;7.23266500;2023-07-13T07:59:08;18.80;99.90
13211;DHT22;6670;51.53087800;7.23266500;2023-07-13T08:01:37;18.90;99.90
13211;DHT22;6670;51.53087800;7.23266500;2023-07-13T08:04:05;19.30;99.90
13211;DHT22;6670;51.53087800;7.23266500;2023-07-13T08:06:32;19.00;99.90
13211;DHT22;6670;51.53087800;7.23266500;2023-07-13T08:09:00;19.00;99.90
13211;DHT22;6670;51.53087800;7.23266500;2023-07-13T08:11:30;19.40;99.90
13211;DHT22;6670;51.53087800;7.23266500;2023-07-13T08:13:57;19.10;99.90
13211;DHT22;6670;51.53087800;7.23266500;2023-07-13T08:16:25;18.90;99.90
13211;DHT22;6670;51.53087800;7.23266500;2023-07-13T08:18:58;18.90;99.90
13211;DHT22;6670;51.53087800;7.23266500;2023-07-13T08:21:26;18.90;99.90
13211;DHT22;6670;51.53087800;7.23266500;2023-07-13T08:23:54;19.00;99.90
13211;DHT22;6670;51.53087800;7.23266500;2023-07-13T08:26:22;19.10;99.90
13211;DHT22;6670;51.53087800;7.23266500;2023-07-13T08:28:50;19.20;99.90
13211;DHT22;6670;51.53087800;7.23266500;2023-07-13T08:31:20;19.10;99.90
13211;DHT22;6670;51.53087800;7.23266500;2023-07-13T08:33:48;19.00;99.90
13211;DHT22;6670;51.53087800;7.23266500;2023-07-13T08:36:17;18.90;99.90
13211;DHT22;6670;51.53087800;7.23266500;2023-07-13T08:38:49;19.40;99.90
13211;DHT22;6670;51.53087800;7.23266500;2023-07-13T08:41:18;19.30;99.90
13211;DHT22;6670;51.53087800;7.23266500;2023-07-13T08:43:49;19.60;99.90
13211;DHT22;6670;51.53087800;7.23266500;2023-07-13T08:46:19;19.70;99.90
13211;DHT22;6670;51.53087800;7.23266500;2023-07-13T08:48:52;19.60;99.90
13211;DHT22;6670;51.53087800;7.23266500;2023-07-13T08:51:31;19.60;99.90
13211;DHT22;6670;51.53087800;7.23266500;2023-07-13T08:54:02;19.50;99.90
13211;DHT22;6670;51.53087800;7.23266500;2023-07-13T08:56:31;19.70;99.90
13211;DHT22;6670;51.53087800;7.23266500;2023-07-13T08:59:04;19.70;99.90
13211;DHT22;6670;51.53087800;7.23266500;2023-07-13T09:01:56;19.60;99.90
13211;DHT22;6670;51.53087800;7.23266500;2023-07-13T09:04:32;20.10;99.90
13211;DHT22;6670;51.53087800;7.23266500;2023-07-13T09:07:06;20.00;99.90
13211;DHT22;6670;51.53087800;7.23266500;2023-07-13T09:09:47;20.10;99.90
13211;DHT22;6670;51.53087800;7.23266500;2023-07-13T09:12:21;20.20;99.90
13211;DHT22;6670;51.53087800;7.23266500;2023-07-13T09:15:00;19.90;99.90
13211;DHT22;6670;51.53087800;7.23266500;2023-07-13T09:17:35;19.60;99.90
13211;DHT22;6670;51.53087800;7.23266500;2023-07-13T09:20:17;19.70;99.90
13211;DHT22;6670;51.53087800;7.23266500;2023-07-13T09:22:48;19.90;99.90
13211;DHT22;6670;51.53087800;7.23266500;2023-07-13T09:25:26;20.10;99.90
13211;DHT22;6670;51.53087800;7.23266500;2023-07-13T09:27:58;20.20;99.90
13211;DHT22;6670;51.53087800;7.23266500;2023-07-13T09:30:33;20.20;99.90
13211;DHT22;6670;51.53087800;7.23266500;2023-07-13T09:33:03;20.10;99.90
13211;DHT22;6670;51.53087800;7.23266500;2023-07-13T09:35:31;20.10;99.90
13211;DHT22;6670;51.53087800;7.23266500;2023-07-13T09:38:11;19.90;99.90
13211;DHT22;6670;51.53087800;7.23266500;2023-07-13T09:40:46;19.80;99.90
13211;DHT22;6670;51.53087800;7.23266500;2023-07-13T09:43:17;19.90;99.90
13211;DHT22;6670;51.53087800;7.23266500;2023-07-13T09:45:47;20.00;99.90
13211;DHT22;6670;51.53087800;7.23266500;2023-07-13T09:48:16;20.20;99.90
13211;DHT22;6670;51.53087800;7.23266500;2023-07-13T09:50:44;20.20;99.90
13211;DHT22;6670;51.53087800;7.23266500;2023-07-13T09:53:19;20.10;99.90
13211;DHT22;6670;51.53087800;7.23266500;2023-07-13T09:55:47;20.00;99.90
13211;DHT22;6670;51.53087800;7.23266500;2023-07-13T09:58:17;20.00;99.90
13211;DHT22;6670;51.53087800;7.23266500;2023-07-13T10:00:55;20.30;99.90
13211;DHT22;6670;51.53087800;7.23266500;2023-07-13T10:03:25;20.50;99.90
13211;DHT22;6670;51.53087800;7.23266500;2023-07-13T10:05:54;20.70;99.90
13211;DHT22;6670;51.53087800;7.23266500;2023-07-13T10:08:24;20.80;99.90
13211;DHT22;6670;51.53087800;7.23266500;2023-07-13T10:10:58;21.00;99.90
13211;DHT22;6670;51.53087800;7.23266500;2023-07-13T10:13:32;20.90;99.90
13211;DHT22;6670;51.53087800;7.23266500;2023-07-13T10:16:04;20.40;99.90
13211;DHT22;6670;51.53087800;7.23266500;2023-07-13T10:18:45;20.30;99.90
13211;DHT22;6670;51.53087800;7.23266500;2023-07-13T10:21:16;20.40;99.90
13211;DHT22;6670;51.53087800;7.23266500;2023-07-13T10:23:48;20.70;99.90
13211;DHT22;6670;51.53087800;7.23266500;2023-07-13T10:26:21;20.70;99.90
13211;DHT22;6670;51.53087800;7.23266500;2023-07-13T10:28:53;20.90;99.90
13211;DHT22;6670;51.53087800;7.23266500;2023-07-13T10:31:22;20.60;99.90
13211;DHT22;6670;51.53087800;7.23266500;2023-07-13T10:33:50;20.70;99.90
13211;DHT22;6670;51.53087800;7.23266500;2023-07-13T10:36:27;20.90;99.90
13211;DHT22;6670;51.53087800;7.23266500;2023-07-13T10:38:58;21.00;99.90
13211;DHT22;6670;51.53087800;7.23266500;2023-07-13T10:41:32;20.80;99.90
13211;DHT22;6670;51.53087800;7.23266500;2023-07-13T10:44:01;20.50;99.90
13211;DHT22;6670;51.53087800;7.23266500;2023-07-13T10:46:32;20.60;99.90
13211;DHT22;6670;51.53087800;7.23266500;2023-07-13T10:49:02;20.80;99.90
13211;DHT22;6670;51.53087800;7.23266500;2023-07-13T10:51:31;20.70;99.90
13211;DHT22;6670;51.53087800;7.23266500;2023-07-13T10:54:22;20.60;99.90
13211;DHT22;6670;51.53087800;7.23266500;2023-07-13T10:57:10;20.70;99.90
13211;DHT22;6670;51.53087800;7.23266500;2023-07-13T10:59:43;20.70;99.90
13211;DHT22;6670;51.53087800;7.23266500;2023-07-13T11:02:23;21.10;99.90
13211;DHT22;6670;51.53087800;7.23266500;2023-07-13T11:04:53;21.10;99.90
13211;DHT22;6670;51.53087800;7.23266500;2023-07-13T11:07:23;21.10;99.90
13211;DHT22;6670;51.53087800;7.23266500;2023-07-13T11:09:53;21.10;99.90
13211;DHT22;6670;51.53087800;7.23266500;2023-07-13T11:12:49;20.90;99.90
13211;DHT22;6670;51.53087800;7.23266500;2023-07-13T11:15:32;20.80;99.90
13211;DHT22;6670;51.53087800;7.23266500;2023-07-13T11:18:04;21.10;99.90
13211;DHT22;6670;51.53087800;7.23266500;2023-07-13T11:20:48;20.90;99.90
13211;DHT22;6670;51.53087800;7.23266500;2023-07-13T11:23:29;21.10;99.90
13211;DHT22;6670;51.53087800;7.23266500;2023-07-13T11:26:03;21.10;99.90
13211;DHT22;6670;51.53087800;7.23266500;2023-07-13T11:28:36;21.50;99.90
13211;DHT22;6670;51.53087800;7.23266500;2023-07-13T11:31:15;21.70;99.90
13211;DHT22;6670;51.53087800;7.23266500;2023-07-13T11:33:59;22.10;99.90
13211;DHT22;6670;51.53087800;7.23266500;2023-07-13T11:36:35;22.10;99.90
13211;DHT22;6670;51.53087800;7.23266500;2023-07-13T11:39:10;22.00;99.90
13211;DHT22;6670;51.53087800;7.23266500;2023-07-13T11:41:48;21.80;99.90
13211;DHT22;6670;51.53087800;7.23266500;2023-07-13T11:44:18;21.90;99.90
13211;DHT22;6670;51.53087800;7.23266500;2023-07-13T11:46:48;21.90;99.90
13211;DHT22;6670;51.53087800;7.23266500;2023-07-13T11:49:18;22.00;99.90
13211;DHT22;6670;51.53087800;7.23266500;2023-07-13T11:51:46;22.30;99.90
13211;DHT22;6670;51.53087800;7.23266500;2023-07-13T11:54:26;22.10;99.90
13211;DHT22;6670;51.53087800;7.23266500;2023-07-13T11:56:58;22.20;99.90
13211;DHT22;6670;51.53087800;7.23266500;2023-07-13T11:59:29;22.30;99.90
13211;DHT22;6670;51.53087800;7.23266500;2023-07-13T12:01:58;22.30;98.00
13211;DHT22;6670;51.53087800;7.23266500;2023-07-13T12:04:29;22.50;98.50
13211;DHT22;6670;51.53087800;7.23266500;2023-07-13T12:07:03;22.60;97.70
13211;DHT22;6670;51.53087800;7.23266500;2023-07-13T12:09:31;22.60;97.70
13211;DHT22;6670;51.53087800;7.23266500;2023-07-13T12:12:11;22.70;96.90
13211;DHT22;6670;51.53087800;7.23266500;2023-07-13T12:14:39;22.70;96.80
13211;DHT22;6670;51.53087800;7.23266500;2023-07-13T12:17:11;22.90;97.10
13211;DHT22;6670;51.53087800;7.23266500;2023-07-13T12:19:41;22.70;97.50
13211;DHT22;6670;51.53087800;7.23266500;2023-07-13T12:22:11;22.80;97.90
13211;DHT22;6670;51.53087800;7.23266500;2023-07-13T12:24:40;22.70;97.10
13211;DHT22;6670;51.53087800;7.23266500;2023-07-13T12:27:19;22.70;95.50
13211;DHT22;6670;51.53087800;7.23266500;2023-07-13T12:29:50;23.00;95.00
13211;DHT22;6670;51.53087800;7.23266500;2023-07-13T12:32:19;23.30;95.60
13211;DHT22;6670;51.53087800;7.23266500;2023-07-13T12:34:52;23.30;95.30
13211;DHT22;6670;51.53087800;7.23266500;2023-07-13T12:37:20;23.00;95.20
13211;DHT22;6670;51.53087800;7.23266500;2023-07-13T12:39:48;23.00;96.40
13211;DHT22;6670;51.53087800;7.23266500;2023-07-13T12:42:23;23.20;95.70
13211;DHT22;6670;51.53087800;7.23266500;2023-07-13T12:44:54;23.50;94.40
13211;DHT22;6670;51.53087800;7.23266500;2023-07-13T12:47:24;23.80;94.00
13211;DHT22;6670;51.53087800;7.23266500;2023-07-13T12:49:54;23.60;93.10
13211;DHT22;6670;51.53087800;7.23266500;2023-07-13T12:52:27;22.90;93.70
13211;DHT22;6670;51.53087800;7.23266500;2023-07-13T12:54:57;23.00;94.00
13211;DHT22;6670;51.53087800;7.23266500;2023-07-13T12:57:27;23.10;94.40
13211;DHT22;6670;51.53087800;7.23266500;2023-07-13T12:59:58;23.10;94.00
13211;DHT22;6670;51.53087800;7.23266500;2023-07-13T13:02:30;23.50;93.80
13211;DHT22;6670;51.53087800;7.23266500;2023-07-13T13:04:58;23.80;92.70
13211;DHT22;6670;51.53087800;7.23266500;2023-07-13T13:07:26;23.70;92.60
13211;DHT22;6670;51.53087800;7.23266500;2023-07-13T13:09:55;23.60;92.50
13211;DHT22;6670;51.53087800;7.23266500;2023-07-13T13:12:23;23.90;92.50
13211;DHT22;6670;51.53087800;7.23266500;2023-07-13T13:14:54;23.90;92.30
13211;DHT22;6670;51.53087800;7.23266500;2023-07-13T13:17:22;23.30;92.60
13211;DHT22;6670;51.53087800;7.23266500;2023-07-13T13:19:53;23.00;93.50
13211;DHT22;6670;51.53087800;7.23266500;2023-07-13T13:22:21;22.60;94.10
13211;DHT22;6670;51.53087800;7.23266500;2023-07-13T13:24:49;22.40;94.20
13211;DHT22;6670;51.53087800;7.23266500;2023-07-13T13:27:18;22.30;95.60
13211;DHT22;6670;51.53087800;7.23266500;2023-07-13T13:29:46;21.40;99.90
13211;DHT22;6670;51.53087800;7.23266500;2023-07-13T13:32:18;20.70;99.90
13211;DHT22;6670;51.53087800;7.23266500;2023-07-13T13:34:46;20.20;99.90
13211;DHT22;6670;51.53087800;7.23266500;2023-07-13T13:37:18;19.90;99.90
13211;DHT22;6670;51.53087800;7.23266500;2023-07-13T13:39:46;19.60;99.90
13211;DHT22;6670;51.53087800;7.23266500;2023-07-13T13:42:14;19.20;99.90
13211;DHT22;6670;51.53087800;7.23266500;2023-07-13T13:44:42;19.20;99.90
13211;DHT22;6670;51.53087800;7.23266500;2023-07-13T13:47:30;19.10;99.90
13211;DHT22;6670;51.53087800;7.23266500;2023-07-13T13:49:59;19.20;99.90
13211;DHT22;6670;51.53087800;7.23266500;2023-07-13T13:52:26;19.20;99.90
13211;DHT22;6670;51.53087800;7.23266500;2023-07-13T13:54:53;19.30;99.90